Weather at Entebbe International Airport

Public forecast

Using degrees Celsius for public forecast. Weather courtesy of forecast.io.

Current aviation weather report (METAR) for Entebbe International Airport

Retrieved 2021/11/29 05:00 UTC (11 minutes ago):

HUEN 290500Z 25002KT 9999 FEW018 FEW020CB 22/19 Q1017

Aviation forecast (TAF) for Entebbe International Airport

Retrieved 2021-11-29 00:00 UTC (5 hours ago):

TAF HUEN 282300Z 2900/3006 16008KT 9999 SCT020 FEW022CB TEMPO 2902/2906 VRB10G20KT 7000 TSRA SCT017 FEW019CB BKN100 BECMG 2921/2924 36006KT 9000 -RA BKN019 FEW021CB TEMPO 3002/3006 VRB10KT 8000 -TSRA SCT016 FEW018CB BKN100